ASS weather

Aguascalientes Airport
Mexicali, Baja California, Mexico

Public forecast

Using degrees Celsius for public forecast. Weather courtesy of forecast.io.

Closest aviation weather report (METAR) to Aguascalientes Airport

Closest report is General Rodolfo Sánchez Taboada International Airport, 22.1 nm (40.9 km) NNW. Retrieved 2020/02/22 03:53 UTC (20 minutes ago):

MMML 220353Z 00000KT 10SM FEW050 SCT120 BKN200 20/02 A2998 RMK 8/578

Closest aviation forecast (TAF) to Aguascalientes Airport

Forecast is more than 6 hours old.

Closest forecast is General Rodolfo Sánchez Taboada International Airport, 22.1 nm (40.9 km) NNW. Retrieved 2020/02/21 18:36 UTC (10 hours ago):

TAF MMML 211630Z 2118/2218 36005KT P6SM BKN220 BECMG 2120/2121 02012KT FM220200 18005KT P6SM SCT100 BKN220 FM220800 17010KT P6SM BKN080 BKN220 FM221400 15015KT P6SM SCT080 BKN220